Time;durP1;ratioP1;P1;durP2;ratioP2;P2;SDS_P1;SDS_P2;PMS_P1;PMS_P2;Temp;Humidity;BMP_temperature;BMP_pressure;BME280_temperature;BME280_humidity;BME280_pressure;Samples;Min_cycle;Max_cycle;Signal;HPM_P1;HPM_P2
2023/09/16 00:03:14;;;;;;;25.55;16.85;;;11.30;99.90;;;;;;25594596;23;20005;-50
2023/09/16 00:13:16;;;;;;;31.02;17.35;;;11.20;99.90;;;;;;25594137;23;20009;-59
2023/09/16 00:23:18;;;;;;;31.60;18.35;;;11.00;99.90;;;;;;25593237;23;20067;-52
2023/09/16 00:33:20;;;;;;;28.30;17.33;;;10.90;99.90;;;;;;25593363;23;20440;-52
2023/09/16 00:43:22;;;;;;;28.83;17.60;;;10.90;99.90;;;;;;25590765;23;20079;-58
2023/09/16 00:53:26;;;;;;;26.45;16.00;;;10.80;99.90;;;;;;25592468;23;20036;-58
2023/09/16 01:03:28;;;;;;;24.67;15.55;;;10.90;99.90;;;;;;25591768;23;20123;-52
2023/09/16 01:13:30;;;;;;;27.60;15.18;;;10.70;99.90;;;;;;25565257;23;20005;-53
2023/09/16 01:23:32;;;;;;;20.25;12.32;;;10.70;99.90;;;;;;25591173;23;20005;-52
2023/09/16 01:33:43;;;;;;;19.17;12.60;;;10.70;99.90;;;;;;25590467;23;20009;-58
2023/09/16 01:43:46;;;;;;;18.30;11.60;;;10.70;99.90;;;;;;25605030;23;20009;-58
2023/09/16 01:53:48;;;;;;;14.45;9.95;;;10.60;99.90;;;;;;25589837;23;20016;-58
2023/09/16 02:03:49;;;;;;;16.92;10.88;;;10.70;99.90;;;;;;25589674;23;20021;-57
2023/09/16 02:13:51;;;;;;;13.90;8.73;;;10.90;99.90;;;;;;25589220;23;20333;-52
2023/09/16 02:23:53;;;;;;;15.00;9.80;;;11.00;99.90;;;;;;25562246;23;20005;-57
2023/09/16 02:33:59;;;;;;;13.77;9.45;;;11.00;99.90;;;;;;25588313;23;20067;-57
2023/09/16 02:44:01;;;;;;;16.88;10.25;;;10.90;99.90;;;;;;25629410;23;20009;-58
2023/09/16 02:54:05;;;;;;;12.25;8.77;;;10.70;99.90;;;;;;25561730;23;20001;-52
2023/09/16 03:04:08;;;;;;;14.55;10.27;;;10.70;99.90;;;;;;25594763;23;20005;-52
2023/09/16 03:14:09;;;;;;;16.65;10.52;;;10.60;99.90;;;;;;25596012;23;20012;-53
2023/09/16 03:24:14;;;;;;;12.85;8.90;;;10.50;99.90;;;;;;25595203;23;20063;-57
2023/09/16 03:34:16;;;;;;;15.32;9.40;;;10.60;99.90;;;;;;25568077;23;20071;-58
2023/09/16 03:44:17;;;;;;;14.60;9.93;;;10.90;99.90;;;;;;25594092;23;20012;-52
2023/09/16 03:54:19;;;;;;;13.02;8.57;;;11.10;99.90;;;;;;25592040;23;20009;-58
2023/09/16 04:04:21;;;;;;;13.32;8.73;;;11.10;99.90;;;;;;25591179;23;20510;-58
2023/09/16 04:14:23;;;;;;;10.13;7.40;;;11.10;99.90;;;;;;25589336;23;20009;-58
2023/09/16 04:24:25;;;;;;;8.43;6.72;;;11.20;99.90;;;;;;25592506;23;20375;-58
2023/09/16 04:34:29;;;;;;;9.32;6.88;;;11.30;99.90;;;;;;25232235;23;20327;-54
2023/09/16 04:44:38;;;;;;;8.85;6.40;;;11.30;99.90;;;;;;25166054;23;20039;-52
2023/09/16 04:54:40;;;;;;;10.40;6.35;;;11.20;99.90;;;;;;25211802;23;20118;-52
2023/09/16 05:04:45;;;;;;;8.43;6.47;;;11.20;99.90;;;;;;25253414;23;20006;-58
2023/09/16 05:14:50;;;;;;;9.07;7.03;;;11.10;99.90;;;;;;25508591;23;20005;-54
2023/09/16 05:24:54;;;;;;;8.13;6.40;;;11.00;99.90;;;;;;25441092;23;20009;-53
2023/09/16 05:34:56;;;;;;;7.00;5.60;;;11.20;99.90;;;;;;25440778;23;20009;-51
2023/09/16 05:45:00;;;;;;;7.32;5.38;;;11.40;99.90;;;;;;25440392;23;20016;-59
2023/09/16 05:55:02;;;;;;;8.52;6.10;;;11.50;99.90;;;;;;25466302;23;20010;-53
2023/09/16 06:05:08;;;;;;;9.73;6.60;;;11.70;99.90;;;;;;25439853;23;20380;-58
2023/09/16 06:15:10;;;;;;;7.32;6.15;;;11.90;99.90;;;;;;25480059;23;20080;-55
2023/09/16 06:25:13;;;;;;;6.65;4.95;;;12.10;99.90;;;;;;25463585;23;20033;-59
2023/09/16 06:35:15;;;;;;;4.78;4.28;;;12.60;99.90;;;;;;25578463;23;20008;-55
2023/09/16 06:45:17;;;;;;;6.47;5.70;;;13.50;99.90;;;;;;25587661;23;20067;-60
2023/09/16 06:55:18;;;;;;;15.15;10.88;;;14.90;99.90;;;;;;25586291;23;20052;-60
2023/09/16 07:05:20;;;;;;;11.57;9.77;;;15.70;99.90;;;;;;25586530;23;20005;-60
2023/09/16 07:15:23;;;;;;;11.80;9.13;;;16.40;99.90;;;;;;25587104;23;20012;-56
2023/09/16 07:25:24;;;;;;;10.68;7.45;;;16.80;99.90;;;;;;25584731;23;20047;-60
2023/09/16 07:35:27;;;;;;;8.45;7.55;;;17.00;99.90;;;;;;25589162;23;20421;-61
2023/09/16 07:45:28;;;;;;;8.32;7.35;;;17.30;99.90;;;;;;25587332;23;20016;-61
2023/09/16 07:55:30;;;;;;;7.30;6.53;;;17.70;99.90;;;;;;25593193;23;20325;-61
2023/09/16 08:05:32;;;;;;;5.80;5.20;;;18.20;99.90;;;;;;25593415;23;20510;-62
2023/09/16 08:15:34;;;;;;;8.15;6.07;;;18.90;99.90;;;;;;25593149;23;20051;-63
2023/09/16 08:25:36;;;;;;;5.72;4.53;;;19.20;99.90;;;;;;25594431;23;20112;-56
2023/09/16 08:35:37;;;;;;;4.95;4.53;;;19.10;99.90;;;;;;25592165;23;20017;-61
2023/09/16 08:45:49;;;;;;;6.70;5.43;;;18.80;99.90;;;;;;25592101;23;20526;-61
2023/09/16 08:55:52;;;;;;;6.07;5.47;;;18.90;99.90;;;;;;25564120;23;20063;-61
2023/09/16 09:05:54;;;;;;;6.88;5.80;;;19.20;99.90;;;;;;25590648;23;20004;-60
2023/09/16 09:16:00;;;;;;;5.38;4.82;;;19.40;99.90;;;;;;25588265;23;20013;-60
2023/09/16 09:26:02;;;;;;;5.90;5.30;;;19.60;99.90;;;;;;25631496;23;20009;-57
2023/09/16 09:36:15;;;;;;;6.70;6.10;;;19.70;99.90;;;;;;25589836;23;20064;-61
2023/09/16 09:46:17;;;;;;;6.30;5.55;;;19.90;99.90;;;;;;25630836;23;20452;-61
2023/09/16 09:56:19;;;;;;;6.32;5.68;;;20.00;99.90;;;;;;25588672;23;20071;-62
2023/09/16 10:06:21;;;;;;;6.05;5.53;;;21.00;99.90;;;;;;25588999;23;20008;-61
2023/09/16 10:16:24;;;;;;;4.80;4.40;;;20.30;99.90;;;;;;25588885;23;20067;-61
2023/09/16 10:26:26;;;;;;;6.38;4.55;;;19.60;99.90;;;;;;25589675;23;20444;-56
2023/09/16 10:36:29;;;;;;;6.00;5.20;;;20.10;99.90;;;;;;25628647;23;20004;-61
2023/09/16 10:46:35;;;;;;;7.65;6.85;;;20.70;99.90;;;;;;25587475;23;20013;-62
2023/09/16 10:56:45;;;;;;;7.05;6.05;;;20.00;99.90;;;;;;25587100;23;20001;-61
2023/09/16 11:06:52;;;;;;;7.93;7.13;;;19.50;99.90;;;;;;25628034;23;20452;-60
2023/09/16 11:16:54;;;;;;;7.33;6.63;;;19.20;99.90;;;;;;25628261;23;20012;-61
2023/09/16 11:26:56;;;;;;;9.98;8.15;;;19.30;99.90;;;;;;25594481;23;20388;-60
2023/09/16 11:37:03;;;;;;;10.35;8.73;;;19.50;99.90;;;;;;25594530;23;20009;-60
2023/09/16 11:47:06;;;;;;;8.80;7.80;;;20.40;99.90;;;;;;25634991;23;20016;-61
2023/09/16 11:57:08;;;;;;;8.60;7.70;;;21.80;99.90;;;;;;25595726;23;20336;-62
2023/09/16 12:07:10;;;;;;;7.63;6.90;;;22.50;99.90;;;;;;25593593;23;20009;-61
2023/09/16 12:17:12;;;;;;;8.38;7.45;;;22.20;99.90;;;;;;25593319;23;20005;-61
2023/09/16 12:27:14;;;;;;;8.80;8.00;;;22.20;99.90;;;;;;25592638;23;20005;-61
2023/09/16 12:37:16;;;;;;;8.93;7.15;;;22.70;99.90;;;;;;25566206;23;20017;-62
2023/09/16 12:47:20;;;;;;;7.95;6.97;;;23.70;99.90;;;;;;25591540;23;20021;-61
2023/09/16 12:57:24;;;;;;;8.68;7.15;;;23.50;99.90;;;;;;25591218;23;20429;-62
2023/09/16 13:07:27;;;;;;;11.68;10.48;;;23.40;99.90;;;;;;25590583;23;20332;-61
2023/09/16 13:17:31;;;;;;;11.93;9.55;;;21.50;99.90;;;;;;25590957;23;20437;-62
2023/09/16 13:27:36;;;;;;;10.93;8.43;;;22.00;99.90;;;;;;25589905;23;20012;-61
2023/09/16 13:37:38;;;;;;;8.70;7.80;;;23.40;99.90;;;;;;25588529;23;20015;-63
2023/09/16 13:47:40;;;;;;;10.18;8.80;;;23.30;99.90;;;;;;25589193;23;20032;-61
2023/09/16 13:57:42;;;;;;;13.10;9.70;;;22.20;99.90;;;;;;25589060;23;20005;-57
2023/09/16 14:07:44;;;;;;;13.38;11.40;;;21.40;99.90;;;;;;25588471;23;20008;-60
2023/09/16 14:17:46;;;;;;;10.05;8.20;;;21.50;99.90;;;;;;25588682;23;20067;-61
2023/09/16 14:27:47;;;;;;;8.02;7.22;;;21.90;99.90;;;;;;25587646;23;20020;-61
2023/09/16 14:37:55;;;;;;;6.95;6.25;;;21.00;99.90;;;;;;25587545;23;20005;-60
2023/09/16 14:47:57;;;;;;;7.75;6.53;;;20.20;99.90;;;;;;25628866;23;20005;-60
2023/09/16 14:58:00;;;;;;;8.48;7.00;;;19.80;99.90;;;;;;25560469;23;20013;-60
2023/09/16 15:08:03;;;;;;;10.32;8.27;;;20.20;99.90;;;;;;25586837;23;20017;-60
2023/09/16 15:18:05;;;;;;;11.50;10.30;;;19.90;99.90;;;;;;25587003;23;20028;-55
2023/09/16 15:28:06;;;;;;;13.30;11.73;;;19.20;99.90;;;;;;25586187;23;20009;-55
2023/09/16 15:38:08;;;;;;;15.85;12.02;;;18.50;99.90;;;;;;25586559;23;20515;-60
2023/09/16 15:48:10;;;;;;;15.27;13.15;;;18.40;99.90;;;;;;25586361;23;20008;-60
2023/09/16 15:58:12;;;;;;;14.77;13.18;;;18.70;99.90;;;;;;25586410;23;20428;-60
2023/09/16 16:08:18;;;;;;;16.83;14.82;;;18.50;99.90;;;;;;25590341;23;20001;-60
2023/09/16 16:18:20;;;;;;;22.13;17.95;;;18.10;99.90;;;;;;25634216;23;20067;-54
2023/09/16 16:28:22;;;;;;;24.60;20.00;;;17.50;99.90;;;;;;25590451;23;20444;-59
2023/09/16 16:38:24;;;;;;;22.40;18.00;;;17.00;99.90;;;;;;25592668;23;20527;-59
2023/09/16 16:48:26;;;;;;;22.33;17.95;;;16.70;99.90;;;;;;25592902;23;20009;-59
2023/09/16 16:58:28;;;;;;;24.00;19.25;;;16.60;99.90;;;;;;25592573;23;20005;-59
2023/09/16 17:08:31;;;;;;;26.42;19.52;;;16.40;99.90;;;;;;25591802;23;20432;-59
2023/09/16 17:18:33;;;;;;;32.90;24.02;;;16.20;99.90;;;;;;25591294;23;20001;-59
2023/09/16 17:28:35;;;;;;;37.20;27.90;;;16.10;99.90;;;;;;25589446;23;20060;-59
2023/09/16 17:38:38;;;;;;;32.50;25.20;;;15.90;99.90;;;;;;25589259;23;20013;-53
2023/09/16 17:48:40;;;;;;;33.47;25.70;;;15.80;99.90;;;;;;25590451;23;20013;-59
2023/09/16 17:58:44;;;;;;;31.63;23.98;;;15.80;99.90;;;;;;25588662;23;20012;-50
2023/09/16 18:08:47;;;;;;;40.22;28.90;;;15.70;99.90;;;;;;25587959;23;20506;-59
2023/09/16 18:18:50;;;;;;;26.70;19.95;;;15.50;99.90;;;;;;25587796;23;20001;-49
2023/09/16 18:28:52;;;;;;;32.58;25.27;;;15.20;99.90;;;;;;25585727;23;20060;-54
2023/09/16 18:38:59;;;;;;;36.90;28.23;;;15.00;99.90;;;;;;25627221;23;20059;-59
2023/09/16 18:49:01;;;;;;;38.97;28.35;;;15.00;99.90;;;;;;25585741;23;20332;-59
2023/09/16 18:59:03;;;;;;;39.72;27.58;;;14.90;99.90;;;;;;25585586;23;20009;-59
2023/09/16 19:09:05;;;;;;;38.05;26.95;;;14.70;99.90;;;;;;25585578;23;20306;-59
2023/09/16 19:19:07;;;;;;;40.85;28.58;;;14.40;99.90;;;;;;25585967;23;20452;-59
2023/09/16 19:29:09;;;;;;;41.33;27.35;;;14.30;99.90;;;;;;25585501;23;20032;-59
2023/09/16 19:39:11;;;;;;;37.30;27.23;;;14.30;99.90;;;;;;25585340;23;20013;-53
2023/09/16 19:49:16;;;;;;;32.33;24.60;;;14.40;99.90;;;;;;25592972;23;20380;-59
2023/09/16 19:59:18;;;;;;;34.92;25.38;;;14.50;99.90;;;;;;25565771;23;20040;-59
2023/09/16 20:09:20;;;;;;;32.53;23.88;;;14.60;99.90;;;;;;25592307;23;20036;-59
2023/09/16 20:19:23;;;;;;;43.95;28.92;;;14.50;99.90;;;;;;25592114;23;20017;-59
2023/09/16 20:29:26;;;;;;;34.17;26.85;;;14.60;99.90;;;;;;25591335;23;20452;-59
2023/09/16 20:39:28;;;;;;;34.40;24.65;;;14.60;99.90;;;;;;25591358;23;20072;-59
2023/09/16 20:49:31;;;;;;;29.38;22.88;;;14.50;99.90;;;;;;25590756;23;20337;-53
2023/09/16 20:59:33;;;;;;;36.25;22.80;;;14.50;99.90;;;;;;25589454;23;20001;-59
2023/09/16 21:09:34;;;;;;;37.80;26.50;;;14.40;99.90;;;;;;25589799;23;20005;-59
2023/09/16 21:19:36;;;;;;;31.27;22.45;;;14.30;99.90;;;;;;25589496;23;20009;-59
2023/09/16 21:29:38;;;;;;;27.15;19.23;;;14.40;99.90;;;;;;25589073;23;20013;-59
2023/09/16 21:39:41;;;;;;;31.25;21.45;;;14.20;99.90;;;;;;25589174;23;20001;-49
2023/09/16 21:49:43;;;;;;;29.08;20.80;;;13.90;99.90;;;;;;25588567;23;20013;-58
2023/09/16 21:59:46;;;;;;;25.60;17.98;;;13.50;99.90;;;;;;25588019;23;20001;-58
2023/09/16 22:09:48;;;;;;;28.98;19.75;;;13.10;99.90;;;;;;25587895;23;20013;-58
2023/09/16 22:19:50;;;;;;;21.33;16.38;;;12.90;99.90;;;;;;25587717;23;20001;-58
2023/09/16 22:29:56;;;;;;;23.77;14.63;;;12.70;99.90;;;;;;25586888;23;20009;-58
2023/09/16 22:39:57;;;;;;;27.60;19.60;;;12.70;99.90;;;;;;25586943;23;20507;-59
2023/09/16 22:50:00;;;;;;;31.30;18.92;;;12.90;99.90;;;;;;25587986;23;20013;-59
2023/09/16 23:00:04;;;;;;;28.50;19.70;;;13.10;99.90;;;;;;25588686;23;20005;-59
2023/09/16 23:10:06;;;;;;;24.98;17.67;;;13.40;99.90;;;;;;25588039;23;20032;-59
2023/09/16 23:20:08;;;;;;;20.50;15.55;;;13.60;99.90;;;;;;25594150;23;20436;-53
2023/09/16 23:30:10;;;;;;;22.90;15.50;;;13.70;99.90;;;;;;25595688;23;20057;-59
2023/09/16 23:40:12;;;;;;;21.30;15.75;;;13.80;99.90;;;;;;25595773;23;20013;-59
2023/09/16 23:50:14;;;;;;;22.02;16.23;;;13.80;99.90;;;;;;25569379;23;20005;-59
